»·PEaware :: N254AS KBUR-KLAS

N254AS :: KBUR-KLAS

FLIGHT INFORMATION

Flight Status: Arrived
Operator: Privately registered:
United States
More flights under this callsign
Pilot: Alex S. (22874)
Aircraft: Unknown
(EPIC)
More flights by this aircraft type
Origin: KBUR Bob Hope-Burbank
United States
Destination: KLAS McCarran Intl
United States
More flights between these airports :: More routes between these airports
Route: +VNY3 DAG CRESO4
File this flight plan on PilotEdge
Remarks: I-5 CUSTOM WEATHER CAVOK
Altitude:
(Current/Filed)
21,000ft
Speed:
(Current/Filed)
250kts
Departed: 05-Feb-19 02:22 PM
Arrived: 05-Feb-19 03:23 PM
Distance/Time
Traveled:
193nm/1:01
Distance/Time
To Go:
Arrived

Flight Plot

Page will automatically refresh every two minutes.

Flight plan parsing failed; only flown route is shown


Map Options




Map Legend


Flown Route
Filed Route
Departure Airport
Arrival Airport
Navaid (VOR, NDB)
Fix

Horizontal Profiles

Position Reports

Time Latitude Longitude Heading Altitude Ground
Speed
05-Feb-19 13:59 34.200203 -118.358746 263 738ft 0kts
05-Feb-19 14:00 34.200203 -118.358746 263 738ft 0kts
05-Feb-19 14:01 34.200203 -118.358746 263 738ft 0kts
05-Feb-19 14:02 34.200203 -118.358746 263 738ft 0kts
05-Feb-19 14:03 34.200203 -118.358746 263 738ft 0kts
05-Feb-19 14:04 34.200203 -118.358746 263 738ft 0kts
05-Feb-19 14:05 34.200203 -118.358746 263 738ft 0kts
05-Feb-19 14:06 34.200203 -118.358746 263 738ft 0kts
05-Feb-19 14:07 34.200203 -118.358746 263 738ft 0kts
05-Feb-19 14:08 34.200203 -118.358746 263 738ft 0kts
05-Feb-19 14:09 34.200203 -118.358746 263 738ft 0kts
05-Feb-19 14:10 34.200203 -118.358746 263 738ft 0kts
05-Feb-19 14:11 34.200203 -118.358746 263 738ft 0kts
05-Feb-19 14:11 34.200203 -118.358746 263 738ft 0kts
05-Feb-19 14:12 34.200203 -118.358761 269 738ft 1kts
05-Feb-19 14:14 34.201701 -118.358745 346 738ft 4kts
05-Feb-19 14:15 34.209056 -118.360726 348 738ft 22kts
05-Feb-19 14:15 34.211564 -118.361286 35 738ft 0kts
05-Feb-19 14:16 34.211564 -118.361286 35 738ft 0kts
05-Feb-19 14:17 34.211566 -118.361284 34 738ft 0kts
05-Feb-19 14:18 34.211566 -118.361284 34 738ft 0kts
05-Feb-19 14:19 34.212003 -118.360420 131 738ft 9kts
05-Feb-19 14:20 34.211858 -118.360318 168 738ft 0kts
05-Feb-19 14:21 34.203245 -118.357929 165 830ft 138kts
05-Feb-19 14:22 34.160442 -118.374503 224 3550ft 197kts
05-Feb-19 14:23 34.115627 -118.427449 224 3944ft 241kts
05-Feb-19 14:24 34.070100 -118.482078 225 3812ft 222kts
05-Feb-19 14:25 34.028332 -118.532106 222 3786ft 210kts
05-Feb-19 14:26 34.044625 -118.574862 353 3948ft 197kts
05-Feb-19 14:27 34.099056 -118.583802 350 4558ft 209kts
05-Feb-19 14:28 34.163089 -118.595789 350 7367ft 236kts
05-Feb-19 14:29 34.232098 -118.608002 353 9621ft 252kts
05-Feb-19 14:30 34.303902 -118.618956 352 11548ft 257kts
05-Feb-19 14:31 34.367654 -118.589611 69 12810ft 274kts
05-Feb-19 14:32 34.382430 -118.494189 80 13855ft 276kts
05-Feb-19 14:33 34.415199 -118.412011 54 15477ft 264kts
05-Feb-19 14:34 34.460377 -118.338016 51 17019ft 256kts
05-Feb-19 14:35 34.507500 -118.265816 52 18366ft 267kts
05-Feb-19 14:36 34.553244 -118.191222 51 19707ft 270kts
05-Feb-19 14:37 34.599875 -118.116090 54 20815ft 275kts
05-Feb-19 14:38 34.642131 -118.034354 88 20995ft 295kts
05-Feb-19 14:39 34.646461 -117.930955 83 21000ft 304kts
05-Feb-19 14:40 34.657134 -117.828821 82 20999ft 292kts
05-Feb-19 14:41 34.671915 -117.732901 72 21000ft 287kts
05-Feb-19 14:42 34.695923 -117.639822 72 20999ft 286kts
05-Feb-19 14:43 34.719689 -117.546937 72 20999ft 286kts
05-Feb-19 14:44 34.743221 -117.454613 72 20999ft 286kts
05-Feb-19 14:45 34.766736 -117.362026 72 20999ft 286kts
05-Feb-19 14:46 34.790260 -117.269082 72 20999ft 286kts
05-Feb-19 14:47 34.813615 -117.176469 72 20999ft 286kts
05-Feb-19 14:48 34.836935 -117.083663 72 20999ft 286kts
05-Feb-19 14:49 34.860083 -116.991206 72 20999ft 286kts
05-Feb-19 14:50 34.883104 -116.898931 72 21145ft 283kts
05-Feb-19 14:51 34.905991 -116.806861 72 21146ft 285kts
05-Feb-19 14:52 34.928898 -116.714375 72 21146ft 285kts
05-Feb-19 14:53 34.951859 -116.621339 72 21146ft 286kts
05-Feb-19 14:54 34.982598 -116.532752 60 21146ft 286kts
05-Feb-19 14:55 35.020582 -116.447507 61 21146ft 286kts
05-Feb-19 14:56 35.058412 -116.362187 61 21146ft 286kts
05-Feb-19 14:57 35.095846 -116.277557 61 21085ft 288kts
05-Feb-19 14:58 35.133960 -116.191153 61 20092ft 291kts
05-Feb-19 14:59 35.172133 -116.104397 61 19090ft 289kts
05-Feb-19 15:00 35.210062 -116.017981 61 18089ft 289kts
05-Feb-19 15:01 35.247904 -115.931541 61 17091ft 289kts
05-Feb-19 15:02 35.285802 -115.844748 61 16091ft 289kts
05-Feb-19 15:03 35.327588 -115.764117 46 15088ft 278kts
05-Feb-19 15:04 35.380139 -115.694537 47 13900ft 281kts
05-Feb-19 15:05 35.432894 -115.624109 47 12137ft 283kts
05-Feb-19 15:06 35.485739 -115.553390 47 10394ft 278kts
05-Feb-19 15:07 35.534411 -115.488159 47 10144ft 240kts
05-Feb-19 15:08 35.577758 -115.429975 47 10145ft 224kts
05-Feb-19 15:09 35.619205 -115.374248 47 10146ft 219kts
05-Feb-19 15:10 35.659950 -115.319375 47 10146ft 217kts
05-Feb-19 15:11 35.700602 -115.264537 47 10146ft 216kts
05-Feb-19 15:12 35.741009 -115.209940 47 10146ft 216kts
05-Feb-19 15:13 35.780178 -115.155921 62 10147ft 215kts
05-Feb-19 15:14 35.831607 -115.124804 11 9684ft 233kts
05-Feb-19 15:15 35.895153 -115.109187 11 8678ft 221kts
05-Feb-19 15:16 35.951621 -115.095356 11 7665ft 196kts
05-Feb-19 15:17 36.001267 -115.083182 11 7139ft 158kts
05-Feb-19 15:18 36.037359 -115.079656 316 6390ft 136kts
05-Feb-19 15:19 36.069895 -115.120760 317 4142ft 178kts
05-Feb-19 15:20 36.106807 -115.120108 19 3505ft 121kts
05-Feb-19 15:21 36.114381 -115.147832 210 2710ft 125kts
05-Feb-19 15:22 36.089552 -115.162262 206 2124ft 22kts
05-Feb-19 15:23 36.089380 -115.163563 291 2129ft 0kts
05-Feb-19 15:24 36.089442 -115.165395 268 2135ft 11kts
05-Feb-19 15:25 36.088923 -115.166045 178 2138ft 0kts
05-Feb-19 15:26 36.088923 -115.166045 178 2138ft 0kts
05-Feb-19 15:27 36.088923 -115.166045 178 2138ft 0kts
05-Feb-19 15:28 36.088923 -115.166045 178 2138ft 0kts
05-Feb-19 15:29 36.088923 -115.166045 178 2138ft 0kts

Navigation Log

Ident Type
Flight plan parsing failed, navigation log unavailable